createdAt,value
2018-11-20T00:01:46.345Z,97.31
2018-11-20T00:04:35.554Z,97.07
2018-11-20T00:07:43.361Z,97.09
2018-11-20T00:10:32.254Z,97.00
2018-11-20T00:13:21.251Z,96.93
2018-11-20T00:18:56.647Z,97.08
2018-11-20T00:21:45.529Z,97.34
2018-11-20T00:24:35.444Z,97.48
2018-11-20T00:27:43.398Z,97.82
2018-11-20T00:30:32.400Z,98.06
2018-11-20T00:33:11.033Z,97.13
2018-11-20T00:36:00.097Z,96.65
2018-11-20T00:38:48.999Z,97.88
2018-11-20T00:44:20.428Z,98.40
2018-11-20T00:47:09.321Z,97.95
2018-11-20T00:49:58.302Z,96.69
2018-11-20T00:52:47.295Z,96.54
2018-11-20T00:56:15.588Z,96.98
2018-11-20T00:59:04.500Z,97.16
2018-11-20T01:01:53.453Z,96.84
2018-11-20T01:07:27.745Z,96.66
2018-11-20T01:10:17.180Z,96.79
2018-11-20T01:13:06.438Z,98.18
2018-11-20T01:15:55.488Z,97.85
2018-11-20T01:18:37.445Z,97.17
2018-11-20T01:24:03.048Z,97.42
2018-11-20T01:26:52.097Z,97.31
2018-11-20T01:29:59.780Z,98.23
2018-11-20T01:35:33.706Z,98.45
2018-11-20T01:38:22.609Z,98.49
2018-11-20T01:41:11.780Z,98.41
2018-11-20T01:44:00.758Z,98.31
2018-11-20T01:47:08.465Z,98.31
2018-11-20T01:49:57.515Z,98.06
2018-11-20T01:53:06.157Z,97.78
2018-11-20T01:55:55.053Z,97.53
2018-11-20T01:58:44.008Z,97.45
2018-11-20T02:04:16.718Z,97.03
2018-11-20T02:07:06.698Z,96.77
2018-11-20T02:09:55.625Z,96.76
2018-11-20T02:16:23.609Z,96.72
2018-11-20T02:21:58.084Z,96.84
2018-11-20T02:24:46.906Z,96.24
2018-11-20T02:27:35.859Z,95.75
2018-11-20T02:36:21.202Z,94.73
2018-11-20T02:39:10.181Z,94.87
2018-11-20T02:41:59.281Z,95.42
2018-11-20T02:44:48.282Z,95.82
2018-11-20T02:47:37.138Z,95.44
2018-11-20T02:50:44.854Z,94.42
2018-11-20T02:56:50.751Z,94.90
2018-11-20T02:59:58.528Z,94.39
2018-11-20T03:05:41.782Z,92.68
2018-11-20T03:08:49.744Z,92.36
2018-11-20T03:11:38.805Z,91.75
2018-11-20T03:14:28.544Z,91.35
2018-11-20T03:17:17.410Z,91.13
2018-11-20T03:19:58.491Z,90.62
2018-11-20T03:22:50.396Z,90.75
2018-11-20T03:25:59.328Z,90.54
2018-11-20T03:31:57.402Z,90.70
2018-11-20T03:35:05.078Z,90.39
2018-11-20T03:37:54.278Z,89.88
2018-11-20T03:40:43.221Z,90.06
2018-11-20T03:43:32.484Z,90.37
2018-11-20T03:51:58.718Z,91.07
2018-11-20T03:54:47.685Z,91.27
2018-11-20T04:00:20.722Z,92.54
2018-11-20T04:03:09.714Z,91.92
2018-11-20T04:06:17.361Z,91.75
2018-11-20T04:08:59.102Z,91.52
2018-11-20T04:11:39.948Z,89.85
2018-11-20T04:14:29.663Z,89.84
2018-11-20T04:17:18.560Z,89.32
2018-11-20T04:19:59.944Z,89.65
2018-11-20T04:28:29.344Z,90.86
2018-11-20T04:31:56.402Z,90.81
2018-11-20T04:34:45.411Z,91.41
2018-11-20T04:37:34.375Z,91.45
2018-11-20T04:40:34.233Z,91.64
2018-11-20T04:43:23.939Z,92.32
2018-11-20T04:46:12.807Z,92.48
2018-11-20T04:49:01.915Z,92.79
2018-11-20T04:52:09.564Z,92.86
2018-11-20T04:54:58.616Z,92.60
2018-11-20T04:57:47.963Z,92.31
2018-11-20T05:00:55.576Z,92.65
2018-11-20T05:06:57.679Z,91.69
2018-11-20T05:09:46.655Z,92.05
2018-11-20T05:12:54.340Z,91.28
2018-11-20T05:15:43.312Z,91.86
2018-11-20T05:18:33.069Z,90.97
2018-11-20T05:21:22.153Z,90.44
2018-11-20T05:24:29.926Z,90.02
2018-11-20T05:27:18.807Z,90.10
2018-11-20T05:30:07.772Z,90.75
2018-11-20T05:36:03.600Z,89.70
2018-11-20T05:38:52.476Z,90.03
2018-11-20T05:41:53.591Z,89.99
2018-11-20T05:44:42.427Z,90.36
2018-11-20T05:47:32.187Z,90.35
2018-11-20T05:50:21.123Z,89.87
2018-11-20T05:56:29.491Z,85.33
2018-11-20T05:59:18.392Z,84.07
2018-11-20T06:02:07.382Z,82.18
2018-11-20T06:04:56.325Z,81.10
2018-11-20T06:07:45.410Z,81.37
2018-11-20T06:10:34.359Z,79.93
2018-11-20T06:13:23.321Z,79.47
2018-11-20T06:16:12.244Z,78.65
2018-11-20T06:19:19.984Z,78.17
2018-11-20T06:21:59.736Z,78.35
2018-11-20T06:27:41.226Z,78.47
2018-11-20T06:30:30.688Z,77.59
2018-11-20T06:33:19.638Z,78.23
2018-11-20T06:36:08.963Z,78.06
2018-11-20T06:42:36.623Z,77.73
2018-11-20T06:45:24.794Z,77.33
2018-11-20T06:57:09.175Z,75.43
2018-11-20T06:59:57.382Z,75.71
2018-11-20T07:02:45.560Z,76.25
2018-11-20T07:08:25.780Z,74.15
2018-11-20T07:11:13.769Z,72.80
2018-11-20T07:14:31.308Z,74.33
2018-11-20T07:17:22.830Z,73.58
2018-11-20T07:20:11.013Z,74.69
2018-11-20T07:22:59.571Z,75.24
2018-11-20T07:25:43.271Z,75.33
2018-11-20T07:28:31.342Z,76.09
2018-11-20T07:31:19.582Z,75.97
2018-11-20T07:37:06.804Z,77.69
2018-11-20T07:39:54.715Z,76.49
2018-11-20T07:42:43.448Z,76.12
2018-11-20T07:45:31.617Z,75.03
2018-11-20T07:48:20.306Z,74.82
2018-11-20T07:51:08.346Z,75.37
2018-11-20T07:53:56.508Z,75.94
2018-11-20T07:56:44.585Z,74.91
2018-11-20T08:02:37.639Z,74.47
2018-11-20T08:05:25.893Z,74.82
2018-11-20T08:08:13.960Z,74.14
2018-11-20T08:11:02.110Z,73.33
2018-11-20T08:13:50.247Z,72.62
2018-11-20T08:16:38.512Z,71.24
2018-11-20T08:19:26.761Z,71.08
2018-11-20T08:22:14.929Z,71.39
2018-11-20T08:25:03.060Z,71.27
2018-11-20T08:28:07.015Z,71.48
2018-11-20T08:30:55.162Z,71.11
2018-11-20T08:33:44.053Z,71.58
2018-11-20T08:36:32.159Z,71.35
2018-11-20T08:39:20.481Z,70.27
2018-11-20T08:42:08.590Z,69.96
2018-11-20T08:44:56.686Z,70.53
2018-11-20T08:47:44.828Z,69.37
2018-11-20T08:50:33.016Z,69.38
2018-11-20T08:53:21.146Z,70.05
2018-11-20T08:56:24.416Z,68.91
2018-11-20T08:59:12.500Z,66.78
2018-11-20T09:02:01.477Z,65.69
2018-11-20T09:04:49.591Z,66.36
2018-11-20T09:07:38.616Z,67.18
2018-11-20T09:10:26.892Z,67.92
2018-11-20T09:13:14.988Z,70.78
2018-11-20T09:16:03.068Z,69.90
2018-11-20T09:18:51.184Z,68.83
2018-11-20T09:27:31.452Z,68.17
2018-11-20T09:45:32.745Z,62.75
2018-11-20T10:05:44.705Z,60.64
2018-11-20T10:08:46.141Z,60.89
2018-11-20T10:11:34.222Z,60.89
2018-11-20T10:14:22.476Z,60.59
2018-11-20T10:17:23.215Z,62.33
2018-11-20T10:23:21.103Z,64.56
2018-11-20T10:26:09.349Z,66.02
2018-11-20T10:28:57.355Z,67.49
2018-11-20T10:31:45.433Z,68.92
2018-11-20T10:34:26.519Z,68.65
2018-11-20T10:37:14.712Z,69.03
2018-11-20T10:40:02.871Z,69.32
2018-11-20T10:42:51.038Z,70.46
2018-11-20T10:45:39.221Z,70.87
2018-11-20T10:48:27.270Z,71.43
2018-11-20T10:51:15.429Z,72.27
2018-11-20T10:54:03.488Z,71.60
2018-11-20T10:56:51.690Z,71.90
2018-11-20T10:59:39.799Z,71.96
2018-11-20T11:02:27.885Z,72.29
2018-11-20T11:05:16.010Z,73.94
2018-11-20T11:08:05.097Z,73.29
2018-11-20T11:10:53.129Z,74.19
2018-11-20T11:13:42.139Z,74.02
2018-11-20T11:16:30.254Z,74.63
2018-11-20T11:19:18.423Z,75.31
2018-11-20T11:22:06.479Z,74.96
2018-11-20T11:24:54.572Z,74.79
2018-11-20T11:27:42.837Z,74.76
2018-11-20T11:30:31.076Z,75.17
2018-11-20T11:33:24.250Z,75.78
2018-11-20T11:36:07.450Z,74.78
2018-11-20T11:39:04.153Z,76.01
2018-11-20T11:41:53.178Z,76.17
2018-11-20T11:44:41.250Z,75.95
2018-11-20T11:50:16.689Z,76.70
2018-11-20T11:53:04.823Z,77.47
2018-11-20T11:55:52.938Z,77.08
2018-11-20T11:58:41.643Z,77.56
2018-11-20T12:04:16.933Z,77.07
2018-11-20T12:07:05.104Z,77.00
2018-11-20T12:09:47.289Z,75.71
2018-11-20T12:18:26.578Z,78.46
2018-11-20T12:24:07.870Z,78.88
2018-11-20T12:38:56.997Z,79.28
2018-11-20T12:41:46.323Z,79.44
2018-11-20T12:44:33.282Z,79.32
2018-11-20T12:53:16.596Z,79.68
2018-11-20T12:56:04.750Z,79.24
2018-11-20T12:58:54.128Z,80.02
2018-11-20T13:01:40.606Z,79.71
2018-11-20T13:04:24.404Z,79.78
2018-11-20T13:07:12.501Z,80.33
2018-11-20T13:10:00.987Z,80.22
2018-11-20T13:12:48.840Z,79.86
2018-11-20T13:15:37.970Z,80.27
2018-11-20T13:18:17.178Z,80.76
2018-11-20T13:21:05.319Z,81.52
2018-11-20T13:23:53.444Z,80.73
2018-11-20T13:26:42.438Z,81.82
2018-11-20T13:29:30.647Z,82.61
2018-11-20T13:32:18.981Z,82.74
2018-11-20T13:35:07.167Z,83.55
2018-11-20T13:37:55.338Z,83.32
2018-11-20T13:41:24.628Z,83.34
2018-11-20T13:44:12.712Z,83.44
2018-11-20T13:47:12.548Z,83.28
2018-11-20T13:52:54.672Z,83.20
2018-11-20T13:58:30.342Z,83.85
2018-11-20T14:01:32.346Z,83.63
2018-11-20T14:04:08.476Z,84.24
2018-11-20T14:06:56.507Z,85.47
2018-11-20T14:09:44.642Z,85.18
2018-11-20T14:12:32.713Z,84.37
2018-11-20T14:15:22.487Z,84.51
2018-11-20T14:21:21.138Z,84.61
2018-11-20T14:24:09.250Z,84.97
2018-11-20T14:26:57.523Z,85.79
2018-11-20T14:29:45.644Z,85.98
2018-11-20T14:32:33.821Z,85.99
2018-11-20T14:35:23.322Z,86.25
2018-11-20T14:38:10.078Z,85.67
2018-11-20T14:41:01.024Z,86.37
2018-11-20T14:43:46.551Z,85.95
2018-11-20T14:46:53.763Z,86.41
2018-11-20T14:49:42.850Z,86.67
2018-11-20T14:52:31.136Z,86.67
2018-11-20T14:55:19.376Z,86.61
2018-11-20T14:58:07.550Z,85.96
2018-11-20T15:04:04.605Z,86.84
2018-11-20T15:06:52.832Z,86.89
2018-11-20T15:09:44.988Z,87.17
2018-11-20T15:15:30.327Z,86.83
2018-11-20T15:42:11.224Z,89.28
2018-11-20T15:44:59.338Z,89.58
2018-11-20T15:47:40.765Z,89.67
2018-11-20T15:50:29.640Z,90.19
2018-11-20T15:53:20.531Z,90.87
2018-11-20T15:56:08.586Z,91.94
2018-11-20T15:58:56.756Z,91.83
2018-11-20T16:01:45.466Z,92.37
2018-11-20T16:04:33.608Z,92.36
2018-11-20T16:07:21.853Z,92.60
2018-11-20T16:10:09.984Z,92.92
2018-11-20T16:12:58.131Z,93.17
2018-11-20T16:15:46.280Z,93.76
2018-11-20T16:18:34.355Z,94.47
2018-11-20T16:21:42.441Z,94.66
2018-11-20T16:24:30.565Z,94.45
2018-11-20T16:27:18.845Z,95.73
2018-11-20T16:30:06.970Z,96.10
2018-11-20T16:32:55.165Z,95.81
2018-11-20T16:35:43.339Z,95.82
2018-11-20T16:41:25.463Z,96.50
2018-11-20T16:44:32.719Z,96.08
2018-11-20T16:47:20.924Z,95.92
2018-11-20T16:50:09.042Z,96.24
2018-11-20T16:52:57.239Z,96.23
2018-11-20T16:55:45.359Z,96.16
2018-11-20T16:58:52.770Z,95.90
2018-11-20T17:01:40.867Z,96.58
2018-11-20T17:12:52.493Z,95.24
2018-11-20T17:15:40.556Z,95.52
2018-11-20T17:18:28.837Z,95.08
2018-11-20T17:21:16.873Z,95.38
2018-11-20T17:24:05.137Z,95.33
2018-11-20T17:26:53.234Z,95.54
2018-11-20T17:29:41.526Z,95.24
2018-11-20T17:32:20.956Z,95.05
2018-11-20T17:35:09.131Z,95.61
2018-11-20T17:37:57.278Z,95.91
2018-11-20T17:40:45.569Z,95.68
2018-11-20T17:43:33.697Z,96.18
2018-11-20T17:46:21.878Z,95.62
2018-11-20T17:49:10.064Z,96.19
2018-11-20T17:51:59.833Z,96.23
2018-11-20T17:54:47.938Z,96.92
2018-11-20T17:57:38.220Z,97.21
2018-11-20T18:09:37.454Z,99.34
2018-11-20T18:15:17.320Z,100.00
2018-11-20T18:21:03.516Z,100.00
2018-11-20T18:23:51.728Z,100.00
2018-11-20T18:29:33.449Z,100.00
2018-11-20T18:32:21.648Z,99.94
2018-11-20T18:35:09.879Z,99.75
2018-11-20T18:37:57.957Z,99.86
2018-11-20T18:40:46.179Z,99.94
2018-11-20T18:47:01.617Z,100.00
2018-11-20T18:49:49.723Z,100.00
2018-11-20T18:52:37.931Z,100.00
2018-11-20T18:55:26.675Z,100.00
2018-11-20T18:58:14.884Z,100.00
2018-11-20T19:01:03.072Z,100.00
2018-11-20T19:03:51.378Z,100.00
2018-11-20T19:06:39.577Z,100.00
2018-11-20T19:09:28.717Z,100.00
2018-11-20T19:12:09.478Z,100.00
2018-11-20T19:14:57.532Z,100.00
2018-11-20T19:17:45.586Z,100.00
2018-11-20T19:20:47.184Z,100.00
2018-11-20T19:23:47.048Z,100.00
2018-11-20T19:26:35.416Z,100.00
2018-11-20T19:29:23.565Z,100.00
2018-11-20T19:32:12.154Z,100.00
2018-11-20T19:35:00.415Z,100.00
2018-11-20T19:37:48.601Z,100.00
2018-11-20T19:40:36.758Z,100.00
2018-11-20T19:43:38.318Z,100.00
2018-11-20T19:46:26.515Z,100.00
2018-11-20T19:52:00.754Z,100.00
2018-11-20T19:54:43.988Z,100.00
2018-11-20T19:57:33.825Z,100.00
2018-11-20T20:00:22.405Z,100.00
2018-11-20T20:03:10.728Z,100.00
2018-11-20T20:05:58.861Z,100.00
2018-11-20T20:09:05.451Z,100.00
2018-11-20T20:11:53.620Z,100.00
2018-11-20T20:14:31.003Z,100.00
2018-11-20T20:20:04.890Z,100.00
2018-11-20T20:26:18.857Z,100.00
2018-11-20T20:29:07.276Z,100.00
2018-11-20T20:31:55.460Z,100.00
2018-11-20T20:34:44.813Z,100.00
2018-11-20T20:37:48.085Z,100.00
2018-11-20T20:40:36.194Z,100.00
2018-11-20T20:46:08.656Z,100.00
2018-11-20T20:48:56.833Z,100.00
2018-11-20T20:52:08.221Z,100.00
2018-11-20T20:54:56.412Z,100.00
2018-11-20T20:57:44.531Z,100.00
2018-11-20T21:03:25.457Z,100.00
2018-11-20T21:06:13.547Z,100.00
2018-11-20T21:09:01.677Z,100.00
2018-11-20T21:11:49.855Z,100.00
2018-11-20T21:14:37.920Z,100.00
2018-11-20T21:17:26.022Z,100.00
2018-11-20T21:20:14.166Z,100.00
2018-11-20T21:25:51.444Z,100.00
2018-11-20T21:28:39.535Z,100.00
2018-11-20T21:31:27.972Z,100.00
2018-11-20T21:34:16.142Z,100.00
2018-11-20T21:36:58.224Z,100.00
2018-11-20T21:39:46.511Z,100.00
2018-11-20T21:45:28.778Z,100.00
2018-11-20T21:48:16.908Z,100.00
2018-11-20T21:51:05.062Z,100.00
2018-11-20T21:53:53.237Z,100.00
2018-11-20T21:56:41.514Z,100.00
2018-11-20T21:59:35.047Z,100.00
2018-11-20T22:02:23.242Z,100.00
2018-11-20T22:05:11.651Z,100.00
2018-11-20T22:07:51.270Z,100.00
2018-11-20T22:10:39.433Z,100.00
2018-11-20T22:13:27.812Z,100.00
2018-11-20T22:16:16.098Z,100.00
2018-11-20T22:19:04.260Z,100.00
2018-11-20T22:21:52.472Z,100.00
2018-11-20T22:24:59.718Z,100.00
2018-11-20T22:27:48.079Z,100.00
2018-11-20T22:30:36.214Z,100.00
2018-11-20T22:33:37.516Z,100.00
2018-11-20T22:36:25.640Z,100.00
2018-11-20T22:39:13.825Z,100.00
2018-11-20T22:42:01.971Z,100.00
2018-11-20T22:44:50.140Z,100.00
2018-11-20T22:47:38.202Z,100.00
2018-11-20T22:50:26.760Z,100.00
2018-11-20T22:53:14.798Z,100.00
2018-11-20T22:56:02.934Z,100.00
2018-11-20T22:58:51.040Z,100.00
2018-11-20T23:01:39.144Z,100.00
2018-11-20T23:07:46.398Z,100.00
2018-11-20T23:10:17.471Z,100.00
2018-11-20T23:12:46.635Z,100.00
2018-11-20T23:15:16.445Z,100.00
2018-11-20T23:26:32.873Z,100.00
2018-11-20T23:29:02.115Z,100.00
2018-11-20T23:31:31.248Z,100.00
2018-11-20T23:34:00.406Z,100.00
2018-11-20T23:36:49.696Z,100.00
2018-11-20T23:39:18.869Z,100.00
2018-11-20T23:41:48.034Z,100.00
2018-11-20T23:44:17.804Z,100.00
2018-11-20T23:46:47.033Z,100.00
2018-11-20T23:49:16.165Z,100.00
2018-11-20T23:51:45.362Z,100.00
2018-11-20T23:54:14.514Z,100.00
2018-11-20T23:56:43.745Z,100.00
2018-11-20T23:59:13.016Z,100.00
